createdAt,value
2022-09-24T00:01:39.171Z,5.25
2022-09-24T00:04:08.753Z,3.47
2022-09-24T00:06:41.168Z,4.50
2022-09-24T00:09:09.744Z,4.23
2022-09-24T00:11:37.027Z,4.78
2022-09-24T00:14:04.651Z,6.35
2022-09-24T00:16:34.136Z,4.32
2022-09-24T00:19:03.319Z,4.78
2022-09-24T00:21:33.707Z,5.72
2022-09-24T00:24:05.046Z,5.03
2022-09-24T00:26:50.669Z,3.13
2022-09-24T00:29:24.463Z,4.45
2022-09-24T00:31:53.351Z,4.55
2022-09-24T00:34:21.132Z,4.00
2022-09-24T00:36:48.664Z,5.35
2022-09-24T00:39:16.360Z,5.75
2022-09-24T00:41:48.147Z,5.85
2022-09-24T00:44:53.135Z,5.10
2022-09-24T00:47:34.132Z,4.85
2022-09-24T00:50:10.669Z,5.40
2022-09-24T00:52:45.192Z,5.57
2022-09-24T00:55:14.292Z,6.22
2022-09-24T00:57:42.711Z,3.60
2022-09-24T01:00:13.986Z,4.22
2022-09-24T01:02:46.197Z,4.53
2022-09-24T01:05:13.950Z,3.45
2022-09-24T01:07:41.344Z,5.28
2022-09-24T01:10:09.011Z,5.72
2022-09-24T01:12:47.344Z,3.30
2022-09-24T01:15:34.726Z,3.15
2022-09-24T01:18:10.071Z,2.70
2022-09-24T01:20:54.770Z,3.22
2022-09-24T01:23:48.390Z,3.38
2022-09-24T01:26:53.311Z,4.55
2022-09-24T01:29:42.380Z,6.03
2022-09-24T01:32:19.179Z,8.73
2022-09-24T01:34:55.197Z,4.10
2022-09-24T01:37:24.501Z,4.38
2022-09-24T01:39:53.968Z,7.93
2022-09-24T01:42:23.718Z,3.45
2022-09-24T01:44:52.131Z,4.57
2022-09-24T01:47:34.129Z,3.17
2022-09-24T01:50:03.276Z,5.03
2022-09-24T01:53:01.277Z,3.90
2022-09-24T01:55:33.393Z,3.50
2022-09-24T01:58:06.109Z,5.30
2022-09-24T02:00:33.382Z,4.07
2022-09-24T02:03:15.286Z,4.72
2022-09-24T02:05:50.768Z,4.75
2022-09-24T02:08:22.460Z,3.25
2022-09-24T02:11:00.424Z,8.07
2022-09-24T02:13:39.867Z,5.50
2022-09-24T02:16:12.179Z,7.72
2022-09-24T02:18:43.067Z,5.30
2022-09-24T02:21:13.633Z,5.05
2022-09-24T02:23:48.062Z,2.85
2022-09-24T02:26:15.346Z,3.00
2022-09-24T02:28:42.753Z,4.28
2022-09-24T02:31:22.264Z,3.35
2022-09-24T02:34:09.765Z,5.68
2022-09-24T02:36:39.278Z,4.05
2022-09-24T02:39:06.462Z,4.00
2022-09-24T02:41:34.729Z,3.40
2022-09-24T02:44:02.150Z,5.38
2022-09-24T02:46:29.449Z,4.18
2022-09-24T02:48:57.514Z,5.18
2022-09-24T02:51:24.713Z,5.43
2022-09-24T02:53:51.838Z,6.78
2022-09-24T02:56:19.097Z,7.15
2022-09-24T02:58:46.220Z,3.97
2022-09-24T03:01:13.301Z,5.10
2022-09-24T03:03:40.489Z,5.10
2022-09-24T03:06:07.666Z,3.70
2022-09-24T03:08:36.018Z,5.40
2022-09-24T03:11:03.184Z,4.80
2022-09-24T03:13:30.272Z,3.83
2022-09-24T03:15:57.595Z,4.55
2022-09-24T03:18:24.869Z,4.90
2022-09-24T03:20:59.714Z,3.97
2022-09-24T03:23:27.604Z,3.72
2022-09-24T03:25:56.784Z,4.63
2022-09-24T03:28:25.831Z,4.45
2022-09-24T03:31:02.165Z,5.45
2022-09-24T03:33:38.423Z,6.00
2022-09-24T03:36:22.286Z,5.60
2022-09-24T03:41:24.879Z,3.53
2022-09-24T03:43:53.243Z,3.75
2022-09-24T03:46:21.090Z,3.70
2022-09-24T03:48:49.385Z,4.97
2022-09-24T03:51:20.333Z,3.95
2022-09-24T03:53:48.507Z,3.28
2022-09-24T03:56:16.222Z,4.15
2022-09-24T03:58:48.404Z,5.32
2022-09-24T04:01:20.858Z,4.35
2022-09-24T04:03:49.255Z,3.70
2022-09-24T04:06:19.581Z,4.22
2022-09-24T04:08:49.345Z,4.07
2022-09-24T04:11:16.371Z,4.13
2022-09-24T04:13:43.535Z,4.28
2022-09-24T04:16:10.718Z,3.75
2022-09-24T04:18:39.356Z,5.53
2022-09-24T04:21:07.233Z,3.95
2022-09-24T04:23:35.345Z,4.35
2022-09-24T04:26:02.661Z,4.65
2022-09-24T04:28:30.849Z,6.25
2022-09-24T04:30:58.240Z,4.53
2022-09-24T04:33:25.685Z,4.82
2022-09-24T04:35:52.848Z,6.82
2022-09-24T04:38:21.607Z,9.13
2022-09-24T04:40:49.463Z,4.10
2022-09-24T04:43:19.344Z,4.53
2022-09-24T04:45:47.135Z,4.70
2022-09-24T04:48:14.413Z,4.20
2022-09-24T04:50:45.813Z,5.53
2022-09-24T04:53:14.486Z,6.30
2022-09-24T04:55:42.076Z,5.75
2022-09-24T04:58:10.111Z,6.20
2022-09-24T05:00:37.852Z,4.75
2022-09-24T05:03:05.515Z,4.32
2022-09-24T05:05:34.066Z,5.38
2022-09-24T05:08:01.798Z,5.93
2022-09-24T05:10:30.377Z,3.53
2022-09-24T05:12:58.009Z,5.28
2022-09-24T05:15:25.189Z,5.60
2022-09-24T05:17:52.566Z,4.95
2022-09-24T05:20:20.181Z,4.70
2022-09-24T05:22:49.742Z,8.77
2022-09-24T05:25:19.046Z,6.50
2022-09-24T05:27:51.780Z,4.25
2022-09-24T05:30:21.008Z,4.18
2022-09-24T05:32:52.590Z,4.88
2022-09-24T05:35:21.840Z,4.78
2022-09-24T05:37:50.329Z,4.38
2022-09-24T05:40:36.165Z,5.50
2022-09-24T05:43:05.283Z,5.28
2022-09-24T05:45:32.841Z,5.68
2022-09-24T05:48:00.888Z,4.22
2022-09-24T05:50:28.950Z,5.75
2022-09-24T05:52:56.476Z,4.15
2022-09-24T05:55:23.594Z,5.50
2022-09-24T05:57:51.065Z,6.22
2022-09-24T06:00:18.370Z,8.20
2022-09-24T06:02:45.556Z,5.35
2022-09-24T06:05:13.412Z,3.83
2022-09-24T06:07:40.523Z,4.75
2022-09-24T06:10:08.418Z,5.72
2022-09-24T06:12:35.626Z,6.68
2022-09-24T06:15:03.015Z,13.10
2022-09-24T06:17:32.541Z,6.55
2022-09-24T06:19:59.974Z,10.15
2022-09-24T06:22:29.075Z,7.53
2022-09-24T06:24:58.982Z,6.50
2022-09-24T06:27:29.014Z,4.30
2022-09-24T06:29:56.257Z,3.83
2022-09-24T06:32:24.617Z,6.63
2022-09-24T06:34:54.427Z,4.22
2022-09-24T06:37:25.566Z,5.65
2022-09-24T06:39:54.121Z,7.22
2022-09-24T06:42:22.812Z,6.45
2022-09-24T06:44:52.304Z,6.88
2022-09-24T06:47:21.166Z,5.57
2022-09-24T06:49:51.761Z,4.25
2022-09-24T06:52:19.150Z,5.65
2022-09-24T06:54:46.477Z,4.00
2022-09-24T06:57:14.068Z,7.63
2022-09-24T06:59:41.503Z,5.10
2022-09-24T07:02:10.468Z,5.18
2022-09-24T07:04:37.924Z,7.40
2022-09-24T07:07:25.033Z,5.50
2022-09-24T07:09:52.229Z,5.85
2022-09-24T07:12:19.296Z,5.28
2022-09-24T07:14:46.496Z,7.07
2022-09-24T07:17:13.609Z,5.95
2022-09-24T07:19:40.865Z,7.68
2022-09-24T07:22:08.807Z,9.45
2022-09-24T07:24:35.874Z,9.57
2022-09-24T07:27:05.733Z,5.80
2022-09-24T07:29:33.462Z,7.28
2022-09-24T07:32:00.932Z,9.10
2022-09-24T07:34:28.041Z,6.72
2022-09-24T07:36:56.392Z,7.20
2022-09-24T07:39:26.844Z,7.20
2022-09-24T07:41:55.250Z,7.75
2022-09-24T07:44:25.681Z,6.20
2022-09-24T07:46:53.144Z,8.88
2022-09-24T07:49:20.298Z,8.43
2022-09-24T07:51:47.940Z,8.75
2022-09-24T07:54:17.250Z,7.40
2022-09-24T07:56:44.641Z,8.90
2022-09-24T07:59:11.998Z,8.63
2022-09-24T08:01:41.040Z,8.73
2022-09-24T08:04:08.422Z,8.15
2022-09-24T08:06:39.635Z,7.53
2022-09-24T08:09:08.756Z,9.00
2022-09-24T08:11:35.970Z,6.68
2022-09-24T08:14:03.447Z,7.07
2022-09-24T08:16:30.697Z,8.98
2022-09-24T08:18:57.874Z,5.20
2022-09-24T08:21:25.036Z,6.85
2022-09-24T08:23:52.612Z,4.93
2022-09-24T08:26:19.611Z,5.32
2022-09-24T08:28:51.675Z,8.13
2022-09-24T08:31:19.384Z,4.60
2022-09-24T08:33:50.912Z,7.57
2022-09-24T08:36:19.061Z,5.82
2022-09-24T08:38:46.206Z,6.22
2022-09-24T08:41:13.270Z,5.47
2022-09-24T08:44:51.312Z,5.60
2022-09-24T08:47:30.276Z,7.20
2022-09-24T08:50:31.701Z,6.53
2022-09-24T08:53:25.493Z,6.05
2022-09-24T08:56:00.853Z,6.22
2022-09-24T08:58:57.052Z,6.40
2022-09-24T09:01:24.332Z,5.40
2022-09-24T09:03:51.878Z,5.00
2022-09-24T09:06:48.611Z,5.32
2022-09-24T09:09:15.719Z,4.47
2022-09-24T09:11:50.505Z,9.23
2022-09-24T09:14:46.107Z,4.45
2022-09-24T09:17:54.784Z,5.28
2022-09-24T09:20:31.227Z,4.20
2022-09-24T09:23:05.235Z,5.88
2022-09-24T09:25:37.128Z,2.47
2022-09-24T09:28:15.682Z,1.85
2022-09-24T09:30:59.350Z,2.60
2022-09-24T09:33:32.119Z,2.50
2022-09-24T09:36:24.139Z,3.20
2022-09-24T09:39:09.604Z,3.30
2022-09-24T09:41:47.354Z,1.58
2022-09-24T09:44:23.281Z,4.03
2022-09-24T09:46:55.713Z,2.83
2022-09-24T09:49:29.377Z,1.42
2022-09-24T09:51:59.147Z,1.45
2022-09-24T09:54:47.097Z,1.20
2022-09-24T09:57:19.093Z,2.53
2022-09-24T09:59:49.724Z,1.35
2022-09-24T10:02:27.466Z,3.33
2022-09-24T10:04:58.133Z,3.53
2022-09-24T10:07:25.437Z,4.88
2022-09-24T10:10:16.875Z,1.92
2022-09-24T10:12:44.111Z,2.22
2022-09-24T10:15:20.459Z,1.75
2022-09-24T10:17:51.308Z,1.95
2022-09-24T10:20:29.021Z,2.70
2022-09-24T10:23:03.884Z,1.67
2022-09-24T10:25:32.513Z,1.90
2022-09-24T10:28:20.459Z,1.83
2022-09-24T10:31:05.709Z,2.47
2022-09-24T10:33:41.884Z,2.97
2022-09-24T10:36:15.022Z,4.00
2022-09-24T10:41:30.038Z,1.50
2022-09-24T10:44:03.085Z,2.28
2022-09-24T10:49:25.540Z,2.78
2022-09-24T10:52:14.180Z,1.88
2022-09-24T10:54:50.199Z,1.83
2022-09-24T10:57:25.468Z,2.72
2022-09-24T11:00:03.035Z,2.17
2022-09-24T11:02:54.934Z,2.15
2022-09-24T11:05:23.405Z,2.28
2022-09-24T11:08:17.708Z,2.42
2022-09-24T11:11:02.971Z,2.13
2022-09-24T11:13:50.435Z,1.35
2022-09-24T11:16:33.012Z,1.88
2022-09-24T11:19:11.467Z,3.25
2022-09-24T11:22:10.483Z,1.77
2022-09-24T11:24:55.718Z,1.63
2022-09-24T11:27:25.529Z,1.48
2022-09-24T11:30:08.038Z,1.38
2022-09-24T11:32:59.568Z,1.77
2022-09-24T11:35:57.251Z,1.35
2022-09-24T11:38:59.460Z,3.33
2022-09-24T11:41:37.415Z,1.52
2022-09-24T11:44:22.348Z,2.10
2022-09-24T11:47:34.692Z,1.10
2022-09-24T11:50:29.227Z,1.88
2022-09-24T11:53:09.113Z,1.58
2022-09-24T11:55:53.867Z,3.45
2022-09-24T11:58:32.296Z,4.75
2022-09-24T12:01:09.387Z,2.42
2022-09-24T12:03:43.187Z,2.08
2022-09-24T12:06:19.452Z,4.20
2022-09-24T12:08:56.924Z,2.35
2022-09-24T12:11:58.602Z,1.90
2022-09-24T12:14:30.389Z,1.70
2022-09-24T12:17:06.160Z,1.42
2022-09-24T12:19:42.297Z,1.95
2022-09-24T12:22:12.079Z,2.40
2022-09-24T12:24:53.170Z,5.60
2022-09-24T12:27:35.592Z,2.53
2022-09-24T12:30:42.656Z,2.33
2022-09-24T12:33:34.871Z,2.50
2022-09-24T12:36:08.134Z,2.97
2022-09-24T12:38:41.127Z,2.25
2022-09-24T12:43:53.312Z,2.70
2022-09-24T12:48:52.157Z,2.47
2022-09-24T12:51:24.187Z,2.67
2022-09-24T12:54:08.848Z,1.73
2022-09-24T12:56:36.523Z,3.05
2022-09-24T12:59:05.808Z,3.25
2022-09-24T13:01:34.677Z,1.52
2022-09-24T13:04:15.983Z,1.75
2022-09-24T13:06:46.834Z,2.30
2022-09-24T13:09:33.618Z,2.90
2022-09-24T13:12:18.890Z,2.38
2022-09-24T13:15:02.849Z,7.10
2022-09-24T13:17:33.707Z,5.25
2022-09-24T13:20:23.010Z,2.95
2022-09-24T13:22:58.511Z,3.17
2022-09-24T13:25:27.402Z,1.38
2022-09-24T13:28:22.955Z,4.05
2022-09-24T13:31:04.404Z,2.65
2022-09-24T13:33:39.976Z,1.52
2022-09-24T13:37:04.784Z,1.00
2022-09-24T13:39:40.882Z,3.33
2022-09-24T13:42:33.700Z,1.60
2022-09-24T13:45:09.709Z,1.58
2022-09-24T13:47:56.689Z,3.10
2022-09-24T13:50:52.561Z,1.75
2022-09-24T13:53:38.128Z,5.00
2022-09-24T13:56:20.249Z,4.22
2022-09-24T13:58:51.455Z,3.15
2022-09-24T14:01:23.114Z,2.30
2022-09-24T14:04:04.046Z,1.55
2022-09-24T14:06:38.998Z,2.47
2022-09-24T14:09:33.097Z,2.00
2022-09-24T14:12:02.337Z,3.55
2022-09-24T14:14:31.416Z,1.77
2022-09-24T14:17:09.170Z,1.00
2022-09-24T14:19:36.521Z,2.15
2022-09-24T14:22:06.703Z,1.98
2022-09-24T14:24:41.704Z,1.38
2022-09-24T14:27:13.315Z,3.05
2022-09-24T14:29:45.357Z,1.10
2022-09-24T14:32:39.843Z,1.92
2022-09-24T14:35:20.299Z,2.22
2022-09-24T14:37:53.872Z,2.25
2022-09-24T14:40:23.340Z,1.40
2022-09-24T14:43:00.251Z,2.63
2022-09-24T14:45:31.497Z,2.17
2022-09-24T14:48:18.005Z,2.38
2022-09-24T14:50:46.010Z,1.88
2022-09-24T14:53:24.695Z,5.05
2022-09-24T14:55:52.059Z,2.08
2022-09-24T14:58:28.508Z,2.15
2022-09-24T15:01:20.289Z,2.13
2022-09-24T15:03:52.690Z,2.63
2022-09-24T15:06:21.886Z,1.83
2022-09-24T15:08:56.653Z,2.83
2022-09-24T15:11:28.053Z,4.50
2022-09-24T15:14:09.152Z,2.85
2022-09-24T15:16:37.855Z,3.67
2022-09-24T15:19:07.809Z,4.00
2022-09-24T15:21:34.984Z,2.55
2022-09-24T15:24:02.376Z,4.03
2022-09-24T15:26:35.009Z,3.00
2022-09-24T15:29:02.762Z,4.65
2022-09-24T15:31:30.180Z,2.22
2022-09-24T15:33:57.892Z,2.80
2022-09-24T15:36:25.225Z,4.05
2022-09-24T15:38:58.352Z,2.47
2022-09-24T15:43:57.221Z,2.88
2022-09-24T15:46:25.678Z,1.88
2022-09-24T15:48:53.299Z,1.63
2022-09-24T15:51:23.442Z,1.85
2022-09-24T15:53:54.456Z,1.75
2022-09-24T15:56:22.232Z,3.03
2022-09-24T15:58:49.356Z,1.65
2022-09-24T16:01:26.883Z,2.35
2022-09-24T16:03:54.516Z,3.65
2022-09-24T16:06:24.224Z,2.75
2022-09-24T16:08:51.477Z,1.42
2022-09-24T16:11:19.597Z,2.00
2022-09-24T16:13:48.103Z,3.10
2022-09-24T16:16:18.457Z,1.77
2022-09-24T16:18:46.475Z,6.00
2022-09-24T16:21:14.096Z,2.22
2022-09-24T16:23:42.914Z,7.18
2022-09-24T16:26:10.112Z,6.35
2022-09-24T16:28:37.213Z,4.03
2022-09-24T16:31:08.158Z,3.85
2022-09-24T16:33:39.901Z,4.65
2022-09-24T16:36:08.493Z,4.07
2022-09-24T16:38:36.858Z,3.75
2022-09-24T16:41:05.355Z,4.65
2022-09-24T16:43:33.083Z,3.47
2022-09-24T16:46:05.920Z,6.03
2022-09-24T16:48:33.666Z,2.22
2022-09-24T16:51:12.028Z,7.22
2022-09-24T16:53:39.199Z,8.18
2022-09-24T16:56:08.701Z,4.47
2022-09-24T16:58:36.592Z,2.75
2022-09-24T17:01:05.845Z,7.82
2022-09-24T17:03:33.414Z,5.35
2022-09-24T17:06:01.322Z,6.43
2022-09-24T17:08:50.894Z,6.03
2022-09-24T17:11:18.192Z,3.35
2022-09-24T17:13:47.636Z,5.22
2022-09-24T17:16:15.900Z,5.63
2022-09-24T17:18:43.265Z,3.45
2022-09-24T17:21:12.462Z,2.28
2022-09-24T17:23:40.298Z,6.05
2022-09-24T17:26:13.253Z,3.40
2022-09-24T17:28:43.253Z,2.90
2022-09-24T17:31:13.051Z,3.30
2022-09-24T17:33:43.701Z,5.55
2022-09-24T17:36:14.385Z,5.10
2022-09-24T17:38:42.013Z,4.07
2022-09-24T17:41:12.248Z,5.07
2022-09-24T17:43:41.023Z,2.97
2022-09-24T17:46:14.138Z,6.22
2022-09-24T17:48:47.214Z,6.97
2022-09-24T17:51:20.147Z,7.72
2022-09-24T17:53:47.466Z,2.97
2022-09-24T17:56:15.944Z,2.45
2022-09-24T17:58:45.311Z,3.55
2022-09-24T18:01:16.008Z,3.70
2022-09-24T18:03:44.312Z,3.17
2022-09-24T18:06:13.915Z,5.68
2022-09-24T18:08:43.896Z,4.65
2022-09-24T18:11:12.315Z,3.13
2022-09-24T18:13:40.462Z,2.30
2022-09-24T18:16:12.902Z,4.88
2022-09-24T18:18:42.426Z,4.47
2022-09-24T18:21:13.263Z,6.07
2022-09-24T18:23:42.165Z,3.80
2022-09-24T18:26:18.644Z,4.05
2022-09-24T18:28:54.666Z,4.53
2022-09-24T18:31:24.783Z,3.70
2022-09-24T18:33:53.911Z,2.83
2022-09-24T18:36:23.572Z,5.50
2022-09-24T18:38:50.717Z,3.42
2022-09-24T18:41:25.121Z,5.57
2022-09-24T18:43:53.812Z,3.20
2022-09-24T18:46:23.332Z,4.10
2022-09-24T18:48:53.016Z,3.15
2022-09-24T18:51:29.018Z,5.07
2022-09-24T18:54:03.238Z,2.67
2022-09-24T18:56:31.528Z,2.38
2022-09-24T18:59:02.824Z,3.30
2022-09-24T19:01:33.229Z,4.97
2022-09-24T19:04:01.123Z,4.57
2022-09-24T19:06:29.771Z,2.15
2022-09-24T19:08:57.110Z,3.88
2022-09-24T19:11:24.532Z,3.80
2022-09-24T19:13:54.227Z,5.50
2022-09-24T19:16:26.415Z,5.30
2022-09-24T19:18:54.832Z,4.85
2022-09-24T19:21:25.851Z,6.78
2022-09-24T19:23:55.549Z,8.60
2022-09-24T19:26:26.102Z,13.93
2022-09-24T19:28:53.988Z,12.40
2022-09-24T19:31:27.346Z,13.98
2022-09-24T19:33:55.198Z,11.68
2022-09-24T19:36:23.299Z,8.27
2022-09-24T19:38:51.086Z,8.23
2022-09-24T19:41:24.713Z,6.50
2022-09-24T19:43:53.638Z,6.80
2022-09-24T19:46:26.031Z,7.45
2022-09-24T19:48:56.566Z,6.32
2022-09-24T19:51:26.726Z,3.47
2022-09-24T19:54:00.505Z,4.82
2022-09-24T19:56:28.278Z,5.80
2022-09-24T19:58:57.751Z,4.15
2022-09-24T20:01:30.311Z,5.30
2022-09-24T20:03:59.673Z,7.45
2022-09-24T20:06:31.543Z,6.75
2022-09-24T20:08:59.509Z,4.22
2022-09-24T20:11:27.061Z,4.78
2022-09-24T20:13:56.678Z,5.18
2022-09-24T20:16:26.898Z,4.55
2022-09-24T20:18:57.962Z,7.25
2022-09-24T20:21:27.899Z,3.25
2022-09-24T20:23:58.079Z,5.07
2022-09-24T20:26:44.577Z,8.13
2022-09-24T20:29:12.640Z,5.28
2022-09-24T20:31:52.199Z,5.47
2022-09-24T20:34:23.063Z,6.03
2022-09-24T20:36:50.925Z,4.40
2022-09-24T20:39:18.269Z,8.73
2022-09-24T20:41:45.643Z,5.35
2022-09-24T20:44:13.163Z,4.93
2022-09-24T20:46:40.592Z,4.65
2022-09-24T20:49:07.861Z,4.68
2022-09-24T20:51:35.091Z,4.43
2022-09-24T20:54:02.891Z,2.20
2022-09-24T20:56:33.004Z,2.88
2022-09-24T20:59:01.147Z,6.20
2022-09-24T21:01:29.145Z,6.38
2022-09-24T21:03:57.660Z,3.67
2022-09-24T21:06:25.093Z,7.03
2022-09-24T21:08:52.999Z,3.88
2022-09-24T21:11:23.086Z,6.45
2022-09-24T21:13:52.559Z,4.70
2022-09-24T21:16:22.087Z,5.85
2022-09-24T21:18:50.846Z,6.28
2022-09-24T21:21:26.645Z,3.78
2022-09-24T21:23:56.909Z,6.88
2022-09-24T21:26:24.888Z,3.72
2022-09-24T21:28:58.528Z,3.60
2022-09-24T21:31:29.047Z,2.92
2022-09-24T21:33:56.995Z,4.72
2022-09-24T21:36:30.134Z,5.10
2022-09-24T21:39:00.089Z,5.40
2022-09-24T21:41:35.795Z,9.07
2022-09-24T21:44:03.474Z,5.25
2022-09-24T21:46:33.452Z,8.45
2022-09-24T21:49:02.153Z,3.95
2022-09-24T21:51:30.330Z,3.90
2022-09-24T21:54:07.233Z,4.97
2022-09-24T21:56:35.433Z,8.52
2022-09-24T21:59:23.018Z,4.97
2022-09-24T22:01:50.367Z,6.90
2022-09-24T22:04:17.693Z,4.80
2022-09-24T22:06:44.851Z,3.60
2022-09-24T22:09:12.031Z,5.55
2022-09-24T22:11:39.282Z,4.22
2022-09-24T22:14:07.101Z,5.05
2022-09-24T22:16:36.393Z,3.63
2022-09-24T22:19:06.285Z,5.70
2022-09-24T22:21:34.175Z,4.53
2022-09-24T22:24:01.850Z,3.88
2022-09-24T22:26:31.928Z,3.17
2022-09-24T22:29:00.158Z,6.50
2022-09-24T22:31:27.478Z,3.67
2022-09-24T22:34:13.370Z,5.25
2022-09-24T22:36:40.944Z,5.70
2022-09-24T22:39:08.637Z,5.97
2022-09-24T22:41:38.672Z,6.53
2022-09-24T22:44:06.905Z,3.65
2022-09-24T22:46:36.412Z,5.18
2022-09-24T22:49:05.321Z,5.18
2022-09-24T22:51:33.847Z,5.30
2022-09-24T22:54:01.489Z,5.93
2022-09-24T22:56:30.260Z,3.92
2022-09-24T22:59:00.530Z,4.55
2022-09-24T23:01:33.856Z,3.83
2022-09-24T23:06:29.073Z,2.88
2022-09-24T23:08:56.660Z,4.55
2022-09-24T23:11:29.265Z,5.20
2022-09-24T23:14:23.761Z,5.50
2022-09-24T23:16:50.942Z,4.15
2022-09-24T23:19:20.171Z,6.10
2022-09-24T23:21:47.429Z,4.43
2022-09-24T23:24:17.143Z,4.43
2022-09-24T23:26:45.445Z,4.05
2022-09-24T23:29:13.189Z,5.28
2022-09-24T23:31:40.363Z,5.13
2022-09-24T23:34:07.961Z,8.90
2022-09-24T23:36:36.278Z,5.25
2022-09-24T23:39:05.419Z,5.50
2022-09-24T23:41:32.822Z,3.75
2022-09-24T23:44:01.195Z,4.28
2022-09-24T23:46:28.604Z,5.80
2022-09-24T23:48:56.785Z,4.78
2022-09-24T23:51:24.041Z,4.97
2022-09-24T23:53:51.542Z,4.40
2022-09-24T23:56:19.400Z,5.80
2022-09-24T23:58:46.886Z,6.30
